Time;durP1;ratioP1;P1;durP2;ratioP2;P2;SDS_P1;SDS_P2;PMS_P1;PMS_P2;Temp;Humidity;BMP_temperature;BMP_pressure;BME280_temperature;BME280_humidity;BME280_pressure;Samples;Min_cycle;Max_cycle;Signal;HPM_P1;HPM_P2
2022/04/08 00:02:05;;;;;;;3.47;1.60;;;7.00;99.90;;;;;;5034336;28;20425;-84
2022/04/08 00:04:32;;;;;;;7.00;2.00;;;6.90;99.90;;;;;;5056056;28;20207;-85
2022/04/08 00:07:01;;;;;;;7.27;2.50;;;6.90;99.90;;;;;;5037333;28;20681;-83
2022/04/08 00:09:27;;;;;;;4.50;2.00;;;6.90;99.90;;;;;;5038068;28;20434;-84
2022/04/08 00:11:52;;;;;;;4.27;1.93;;;7.00;99.90;;;;;;5056307;28;20440;-84
2022/04/08 00:14:20;;;;;;;3.87;2.23;;;7.00;99.90;;;;;;5038295;28;20256;-82
2022/04/08 00:16:46;;;;;;;3.80;2.50;;;7.00;99.90;;;;;;5055388;28;20190;-84
2022/04/08 00:19:12;;;;;;;4.17;2.30;;;6.90;99.90;;;;;;5038362;28;20874;-83
2022/04/08 00:21:38;;;;;;;4.60;2.30;;;6.80;99.90;;;;;;5037956;28;20465;-85
2022/04/08 00:24:04;;;;;;;5.23;2.50;;;6.70;99.90;;;;;;5055769;28;20179;-85
2022/04/08 00:26:29;;;;;;;3.50;2.47;;;6.70;99.90;;;;;;5036957;28;20171;-85
2022/04/08 00:28:55;;;;;;;3.93;2.30;;;6.60;99.90;;;;;;5055515;28;20420;-84
2022/04/08 00:31:21;;;;;;;2.90;1.67;;;6.60;99.90;;;;;;5055677;28;20424;-84
2022/04/08 00:33:46;;;;;;;3.57;1.80;;;6.60;99.90;;;;;;5037667;28;20189;-84
2022/04/08 00:36:13;;;;;;;2.97;1.63;;;6.70;99.90;;;;;;5038126;28;20469;-85
2022/04/08 00:38:39;;;;;;;2.50;1.40;;;6.70;99.90;;;;;;5037134;28;20435;-85
2022/04/08 00:41:04;;;;;;;2.43;1.70;;;6.70;99.90;;;;;;5055569;28;20222;-85
2022/04/08 00:43:35;;;;;;;3.37;1.97;;;6.70;99.90;;;;;;5037187;28;20272;-84
2022/04/08 00:46:02;;;;;;;2.80;1.80;;;6.60;99.90;;;;;;5037021;28;20183;-84
2022/04/08 00:48:28;;;;;;;3.07;1.60;;;6.60;99.90;;;;;;5036574;28;20503;-85
2022/04/08 00:50:54;;;;;;;3.50;2.33;;;6.60;99.90;;;;;;5055061;28;20467;-84
2022/04/08 00:53:20;;;;;;;2.70;1.90;;;6.60;99.90;;;;;;5037369;28;20185;-84
2022/04/08 00:55:46;;;;;;;3.63;2.40;;;6.50;99.90;;;;;;5037036;28;20191;-85
2022/04/08 00:58:13;;;;;;;3.50;2.17;;;6.50;99.90;;;;;;5037813;28;20429;-85
2022/04/08 01:00:39;;;;;;;3.57;2.50;;;6.50;99.90;;;;;;5036858;28;20583;-85
2022/04/08 01:03:06;;;;;;;4.40;2.40;;;6.60;99.90;;;;;;5054886;28;20416;-83
2022/04/08 01:05:32;;;;;;;4.00;2.60;;;6.50;99.90;;;;;;5037117;28;20564;-83
2022/04/08 01:07:58;;;;;;;4.03;2.57;;;6.50;99.90;;;;;;5036416;28;20474;-84
2022/04/08 01:10:24;;;;;;;4.50;2.80;;;6.50;99.90;;;;;;5036756;28;20932;-83
2022/04/08 01:12:50;;;;;;;6.97;3.10;;;6.60;99.90;;;;;;5037066;28;20192;-85
2022/04/08 01:15:20;;;;;;;4.27;2.40;;;6.70;99.90;;;;;;5053515;28;20192;-85
2022/04/08 01:17:47;;;;;;;3.07;1.83;;;6.70;99.90;;;;;;5036265;28;20442;-84
2022/04/08 01:20:13;;;;;;;5.47;2.87;;;6.70;99.90;;;;;;5054288;28;20465;-85
2022/04/08 01:22:39;;;;;;;6.60;2.10;;;6.70;99.90;;;;;;5037038;28;20943;-86
2022/04/08 01:25:06;;;;;;;5.20;2.17;;;6.70;99.90;;;;;;5036903;28;20425;-85
2022/04/08 01:27:32;;;;;;;7.60;2.80;;;6.60;99.90;;;;;;5036091;28;20418;-85
2022/04/08 01:29:58;;;;;;;2.83;1.80;;;6.50;99.90;;;;;;5054506;28;21225;-84
2022/04/08 01:32:24;;;;;;;3.10;2.10;;;6.50;99.90;;;;;;5037057;28;20281;-86
2022/04/08 01:34:52;;;;;;;4.70;2.17;;;6.50;99.90;;;;;;5036564;28;20428;-86
2022/04/08 01:37:18;;;;;;;3.70;2.60;;;6.40;99.90;;;;;;5036060;28;20923;-85
2022/04/08 01:39:43;;;;;;;4.87;2.20;;;6.50;99.90;;;;;;5036407;28;20542;-85
2022/04/08 01:42:09;;;;;;;3.20;2.40;;;6.50;99.90;;;;;;5036446;28;20424;-85
2022/04/08 01:44:36;;;;;;;3.90;2.33;;;6.40;99.90;;;;;;5054494;28;20202;-84
2022/04/08 01:47:02;;;;;;;3.80;2.30;;;6.40;99.90;;;;;;5036137;28;20924;-85
2022/04/08 01:49:28;;;;;;;3.40;2.23;;;6.40;99.90;;;;;;5036588;28;20820;-85
2022/04/08 01:51:53;;;;;;;3.30;2.03;;;6.40;99.90;;;;;;5036124;28;20428;-85
2022/04/08 01:54:19;;;;;;;3.90;2.50;;;6.30;99.90;;;;;;5036054;28;20182;-84
2022/04/08 01:56:45;;;;;;;5.60;2.60;;;6.30;99.90;;;;;;5035225;28;20297;-83
2022/04/08 01:59:10;;;;;;;5.23;2.80;;;6.20;99.90;;;;;;5035967;28;20575;-85
2022/04/08 02:01:36;;;;;;;3.60;2.13;;;6.20;99.90;;;;;;5053760;28;20182;-84
2022/04/08 02:04:03;;;;;;;3.40;2.20;;;6.20;99.90;;;;;;5053978;28;20230;-85
2022/04/08 02:06:29;;;;;;;4.20;2.60;;;6.20;99.90;;;;;;5052943;28;20266;-84
2022/04/08 02:08:55;;;;;;;5.70;2.10;;;6.30;99.90;;;;;;5053766;28;20442;-85
2022/04/08 02:11:20;;;;;;;6.37;2.70;;;6.40;99.90;;;;;;5036061;28;20194;-84
2022/04/08 02:13:46;;;;;;;3.93;2.67;;;6.50;99.90;;;;;;5053918;28;20183;-85
2022/04/08 02:16:12;;;;;;;4.30;2.87;;;6.60;99.90;;;;;;5053873;28;20183;-85
2022/04/08 02:18:38;;;;;;;4.40;2.70;;;6.70;99.90;;;;;;5052862;28;20189;-85
2022/04/08 02:21:04;;;;;;;4.63;2.60;;;6.70;99.90;;;;;;5035981;28;20476;-83
2022/04/08 02:23:30;;;;;;;5.20;3.27;;;6.80;99.90;;;;;;5035999;28;20214;-84
2022/04/08 02:25:56;;;;;;;8.67;3.60;;;6.80;99.90;;;;;;5035673;28;20421;-85
2022/04/08 02:28:22;;;;;;;6.20;4.20;;;6.80;99.90;;;;;;5034999;28;20512;-84
2022/04/08 02:30:48;;;;;;;5.33;3.40;;;6.80;99.90;;;;;;5035709;28;20355;-85
2022/04/08 02:33:13;;;;;;;3.53;2.53;;;6.80;99.90;;;;;;5035620;28;20678;-85
2022/04/08 02:35:39;;;;;;;5.33;3.40;;;6.90;99.90;;;;;;5053687;28;20445;-85
2022/04/08 02:38:05;;;;;;;7.73;4.10;;;6.90;99.90;;;;;;5052848;28;20687;-85
2022/04/08 02:40:30;;;;;;;6.03;3.50;;;6.90;99.90;;;;;;5052879;28;20223;-85
2022/04/08 02:42:56;;;;;;;4.97;3.90;;;6.90;99.90;;;;;;5035848;28;20274;-85
2022/04/08 02:45:21;;;;;;;6.97;3.00;;;6.80;99.90;;;;;;5035493;28;20174;-85
2022/04/08 02:47:47;;;;;;;7.00;2.80;;;6.80;99.90;;;;;;5034654;28;20178;-85
2022/04/08 02:50:13;;;;;;;4.57;3.00;;;6.70;99.90;;;;;;5035069;28;20237;-84
2022/04/08 02:52:38;;;;;;;6.40;3.53;;;6.60;99.90;;;;;;5053292;28;20175;-83
2022/04/08 02:55:05;;;;;;;5.93;3.00;;;6.60;99.90;;;;;;5035171;28;20828;-85
2022/04/08 02:57:31;;;;;;;5.90;3.03;;;6.60;99.90;;;;;;5034334;28;20185;-84
2022/04/08 02:59:59;;;;;;;3.70;2.37;;;6.50;99.90;;;;;;5034812;28;20468;-83
2022/04/08 03:02:25;;;;;;;5.57;3.07;;;6.50;99.90;;;;;;5034831;28;20426;-85
2022/04/08 03:04:51;;;;;;;4.03;2.57;;;6.40;99.90;;;;;;5052669;28;20531;-85
2022/04/08 03:07:17;;;;;;;6.33;2.97;;;6.30;99.90;;;;;;5034052;28;20414;-85
2022/04/08 03:09:43;;;;;;;5.03;2.73;;;6.30;99.90;;;;;;5034783;28;21050;-83
2022/04/08 03:12:09;;;;;;;4.33;2.20;;;6.30;99.90;;;;;;5034638;28;20699;-85
2022/04/08 03:14:35;;;;;;;9.20;2.60;;;6.20;99.90;;;;;;5052935;28;20441;-84
2022/04/08 03:17:01;;;;;;;3.90;2.03;;;6.20;99.90;;;;;;5033889;28;20479;-86
2022/04/08 03:19:27;;;;;;;3.23;2.07;;;6.20;99.90;;;;;;5052384;28;20251;-84
2022/04/08 03:21:54;;;;;;;6.43;2.60;;;6.10;99.90;;;;;;5034604;28;20420;-85
2022/04/08 03:24:19;;;;;;;5.70;2.50;;;6.10;99.90;;;;;;5034701;28;20175;-83
2022/04/08 03:26:47;;;;;;;3.80;1.83;;;6.10;99.90;;;;;;5033969;28;20414;-85
2022/04/08 03:29:13;;;;;;;3.50;2.43;;;6.20;99.90;;;;;;5034595;28;20308;-85
2022/04/08 03:31:39;;;;;;;4.40;2.20;;;6.10;99.90;;;;;;5034287;28;20520;-85
2022/04/08 03:34:04;;;;;;;3.90;2.40;;;6.20;99.90;;;;;;5034668;28;20177;-85
2022/04/08 03:36:30;;;;;;;4.60;2.23;;;6.20;99.90;;;;;;5033709;28;20188;-85
2022/04/08 03:38:55;;;;;;;5.40;3.03;;;6.20;99.90;;;;;;5033525;28;20200;-84
2022/04/08 03:41:21;;;;;;;4.83;2.70;;;6.10;99.90;;;;;;5034587;28;20209;-86
2022/04/08 03:43:46;;;;;;;4.13;2.73;;;6.10;99.90;;;;;;5052949;28;20181;-85
2022/04/08 03:46:13;;;;;;;4.53;3.00;;;6.10;99.90;;;;;;5035283;28;20179;-86
2022/04/08 03:48:42;;;;;;;5.67;2.97;;;6.10;99.90;;;;;;5034522;28;20634;-85
2022/04/08 03:51:08;;;;;;;4.10;2.90;;;6.10;99.90;;;;;;5034387;28;20448;-84
2022/04/08 03:53:34;;;;;;;4.70;3.33;;;6.10;99.90;;;;;;5034225;28;20456;-83
2022/04/08 03:56:02;;;;;;;5.87;3.50;;;6.20;99.90;;;;;;5034400;28;20428;-85
2022/04/08 03:58:28;;;;;;;5.43;3.63;;;6.20;99.90;;;;;;5033430;28;20187;-85
2022/04/08 04:00:54;;;;;;;7.33;4.00;;;6.30;99.90;;;;;;5052012;28;20472;-85
2022/04/08 04:03:20;;;;;;;6.43;4.27;;;6.40;99.90;;;;;;5034187;28;20426;-85
2022/04/08 04:05:45;;;;;;;6.40;3.60;;;6.50;99.90;;;;;;5034150;28;20426;-85
2022/04/08 04:08:18;;;;;;;7.40;5.03;;;6.50;99.90;;;;;;5051168;28;20635;-85
2022/04/08 04:10:48;;;;;;;6.77;3.63;;;6.50;99.90;;;;;;5051889;28;20203;-85
2022/04/08 04:13:14;;;;;;;6.10;3.67;;;6.50;99.90;;;;;;5034085;28;20456;-85
2022/04/08 04:15:40;;;;;;;7.80;4.47;;;6.50;99.90;;;;;;5034151;28;20943;-85
2022/04/08 04:18:05;;;;;;;6.80;4.90;;;6.50;99.90;;;;;;5033676;28;20428;-85
2022/04/08 04:20:31;;;;;;;10.20;5.87;;;6.50;99.90;;;;;;5033881;28;20218;-84
2022/04/08 04:22:57;;;;;;;9.20;6.00;;;6.50;99.90;;;;;;5051934;28;20242;-84
2022/04/08 04:25:22;;;;;;;10.63;5.53;;;6.50;99.90;;;;;;5051515;28;20422;-85
2022/04/08 04:27:48;;;;;;;8.07;5.23;;;6.50;99.90;;;;;;5033467;28;20234;-85
2022/04/08 04:30:14;;;;;;;7.43;5.20;;;6.50;99.90;;;;;;5033583;28;20206;-84
2022/04/08 04:32:40;;;;;;;10.07;5.23;;;6.50;99.90;;;;;;5033971;28;20215;-85
2022/04/08 04:35:09;;;;;;;7.70;4.30;;;6.50;99.90;;;;;;5051515;28;20430;-84
2022/04/08 04:37:35;;;;;;;6.80;4.70;;;6.40;99.90;;;;;;5033276;28;20252;-85
2022/04/08 04:40:02;;;;;;;6.97;4.17;;;6.40;99.90;;;;;;5033533;28;20480;-85
2022/04/08 04:42:28;;;;;;;9.00;4.83;;;6.30;99.90;;;;;;5033750;28;20421;-85
2022/04/08 04:44:57;;;;;;;8.60;4.90;;;6.30;99.90;;;;;;5051425;28;20504;-84
2022/04/08 04:47:23;;;;;;;6.47;4.20;;;6.20;99.90;;;;;;5033209;28;20421;-85
2022/04/08 04:49:48;;;;;;;9.33;4.40;;;6.30;99.90;;;;;;5035995;28;20809;-85
2022/04/08 04:52:14;;;;;;;6.50;4.40;;;6.30;99.90;;;;;;5055146;28;20425;-84
2022/04/08 04:54:41;;;;;;;8.37;4.40;;;6.20;99.90;;;;;;5036994;28;20194;-84
2022/04/08 04:57:07;;;;;;;7.63;4.30;;;6.30;99.90;;;;;;5038860;28;20197;-84
2022/04/08 04:59:33;;;;;;;6.67;4.70;;;6.20;99.90;;;;;;5038865;28;20538;-84
2022/04/08 05:01:58;;;;;;;8.40;3.67;;;6.20;99.90;;;;;;5038816;28;20911;-84
2022/04/08 05:04:24;;;;;;;8.67;4.47;;;6.10;99.90;;;;;;5038873;28;20229;-85
2022/04/08 05:06:49;;;;;;;7.10;4.47;;;6.10;99.90;;;;;;5055748;28;20235;-85
2022/04/08 05:09:15;;;;;;;9.03;5.20;;;6.10;99.90;;;;;;5038776;28;20207;-85
2022/04/08 05:11:40;;;;;;;7.97;5.10;;;6.10;99.90;;;;;;5039006;28;20290;-84
2022/04/08 05:14:06;;;;;;;8.47;4.63;;;6.10;99.90;;;;;;5056299;28;20187;-85
2022/04/08 05:16:32;;;;;;;9.27;4.03;;;6.10;99.90;;;;;;5055989;28;20209;-85
2022/04/08 05:18:57;;;;;;;7.37;4.40;;;6.20;99.90;;;;;;5038470;28;20243;-85
2022/04/08 05:21:23;;;;;;;6.43;4.27;;;6.20;99.90;;;;;;5037923;28;20724;-85
2022/04/08 05:23:49;;;;;;;9.80;4.27;;;6.20;99.90;;;;;;5037719;28;20266;-85
2022/04/08 05:26:15;;;;;;;9.13;4.47;;;6.20;99.90;;;;;;5038192;28;20417;-83
2022/04/08 05:28:41;;;;;;;10.90;5.53;;;6.20;99.90;;;;;;5055213;28;20179;-84
2022/04/08 05:31:07;;;;;;;8.40;5.20;;;6.20;99.90;;;;;;5055665;28;20424;-85
2022/04/08 05:33:32;;;;;;;8.20;4.60;;;6.20;99.90;;;;;;5037471;28;20187;-85
2022/04/08 05:35:58;;;;;;;8.80;4.87;;;6.20;99.90;;;;;;5038389;28;20218;-85
2022/04/08 05:38:23;;;;;;;13.20;5.20;;;6.10;99.90;;;;;;5037644;28;20190;-84
2022/04/08 05:40:49;;;;;;;7.93;3.97;;;6.20;99.90;;;;;;5043960;23;20698;-67
2022/04/08 05:43:16;;;;;;;6.67;4.40;;;6.10;99.90;;;;;;5009676;28;20180;-67
2022/04/08 05:45:42;;;;;;;6.33;3.50;;;6.20;99.90;;;;;;5012328;28;20431;-67
2022/04/08 05:48:08;;;;;;;6.80;4.23;;;6.30;99.90;;;;;;5012205;28;20422;-67
2022/04/08 05:50:34;;;;;;;5.70;3.50;;;6.30;99.90;;;;;;5012446;28;20523;-67
2022/04/08 05:53:00;;;;;;;4.93;3.63;;;6.40;99.90;;;;;;5012450;28;20502;-67
2022/04/08 05:55:26;;;;;;;7.13;4.50;;;6.50;99.90;;;;;;5012309;28;20181;-67
2022/04/08 05:57:56;;;;;;;7.27;3.93;;;6.60;99.90;;;;;;5012223;28;20423;-68
2022/04/08 06:00:23;;;;;;;9.03;4.77;;;6.70;99.90;;;;;;5011527;28;20498;-67
2022/04/08 06:02:49;;;;;;;6.50;3.03;;;6.70;99.90;;;;;;5012295;28;20419;-68
2022/04/08 06:05:18;;;;;;;7.97;3.97;;;6.80;99.90;;;;;;5012232;28;20423;-68
2022/04/08 06:07:53;;;;;;;8.13;4.17;;;6.90;99.90;;;;;;5011732;28;20423;-68
2022/04/08 06:10:22;;;;;;;7.90;4.13;;;6.90;99.90;;;;;;5012123;28;20454;-68
2022/04/08 06:12:52;;;;;;;9.37;4.87;;;7.00;99.90;;;;;;5012010;28;20565;-68
2022/04/08 06:15:18;;;;;;;10.63;6.07;;;7.10;99.90;;;;;;5011999;28;20419;-68
2022/04/08 06:17:44;;;;;;;6.67;3.90;;;7.20;99.90;;;;;;5011956;28;20798;-68
2022/04/08 06:20:11;;;;;;;6.67;3.73;;;7.20;99.90;;;;;;5011905;28;20596;-68
2022/04/08 06:22:41;;;;;;;7.10;3.77;;;7.30;99.90;;;;;;5011736;28;20416;-68
2022/04/08 06:25:08;;;;;;;5.47;3.60;;;7.30;99.90;;;;;;5011844;28;20507;-68
2022/04/08 06:27:34;;;;;;;7.77;3.53;;;7.40;99.90;;;;;;5011677;28;20898;-68
2022/04/08 06:30:01;;;;;;;3.93;3.03;;;7.50;99.90;;;;;;5011720;28;20541;-68
2022/04/08 06:32:26;;;;;;;5.77;3.40;;;7.60;99.90;;;;;;5011961;28;20475;-68
2022/04/08 06:34:52;;;;;;;5.80;3.30;;;7.80;99.90;;;;;;5011564;28;20431;-68
2022/04/08 06:37:18;;;;;;;9.80;3.87;;;7.90;99.90;;;;;;5011424;28;20200;-67
2022/04/08 06:39:45;;;;;;;6.00;3.27;;;8.00;99.90;;;;;;5011273;28;20201;-68
2022/04/08 06:42:11;;;;;;;5.87;3.43;;;8.10;99.90;;;;;;5011553;28;20189;-68
2022/04/08 06:44:37;;;;;;;4.87;3.00;;;8.20;99.90;;;;;;5010581;28;20527;-68
2022/04/08 06:47:03;;;;;;;7.27;3.37;;;8.30;99.90;;;;;;5011127;28;20193;-68
2022/04/08 06:49:28;;;;;;;6.57;3.73;;;8.50;99.90;;;;;;5010703;28;20208;-68
2022/04/08 06:51:58;;;;;;;5.53;3.10;;;8.60;99.90;;;;;;5011251;28;20412;-67
2022/04/08 06:54:24;;;;;;;6.30;3.00;;;8.70;99.90;;;;;;5011115;28;20645;-67
2022/04/08 06:56:51;;;;;;;3.67;2.73;;;8.70;99.90;;;;;;5011119;28;20474;-68
2022/04/08 06:59:17;;;;;;;5.33;2.93;;;8.70;99.90;;;;;;5010969;28;20526;-68
2022/04/08 07:01:43;;;;;;;5.37;2.77;;;8.60;99.90;;;;;;5011096;28;20420;-68
2022/04/08 07:04:09;;;;;;;3.70;2.50;;;8.60;99.90;;;;;;5011126;28;20484;-68
2022/04/08 07:06:34;;;;;;;5.37;2.50;;;8.70;99.90;;;;;;5010798;28;20432;-67
2022/04/08 07:09:00;;;;;;;5.83;2.80;;;8.90;99.90;;;;;;5011018;28;20211;-67
2022/04/08 07:11:26;;;;;;;4.03;2.43;;;9.10;99.90;;;;;;5010709;28;20188;-68
2022/04/08 07:13:51;;;;;;;5.27;2.70;;;9.20;99.90;;;;;;5010447;28;20189;-67
2022/04/08 07:16:17;;;;;;;3.47;2.27;;;9.40;99.90;;;;;;5010825;28;20185;-67
2022/04/08 07:18:43;;;;;;;4.07;3.23;;;9.60;99.90;;;;;;5010686;28;20232;-67
2022/04/08 07:21:09;;;;;;;5.30;2.83;;;9.70;99.90;;;;;;5010729;28;20212;-67
2022/04/08 07:23:36;;;;;;;5.17;2.87;;;9.70;99.90;;;;;;5010914;28;20215;-67
2022/04/08 07:26:03;;;;;;;5.53;2.93;;;9.80;99.90;;;;;;5010897;28;20181;-68
2022/04/08 07:28:29;;;;;;;5.27;3.00;;;9.70;99.90;;;;;;5010486;28;20518;-68
2022/04/08 07:30:55;;;;;;;8.40;3.33;;;9.80;99.90;;;;;;5010848;28;20494;-68
2022/04/08 07:33:21;;;;;;;5.30;3.40;;;9.60;99.90;;;;;;5009979;28;20185;-68
2022/04/08 07:35:46;;;;;;;6.40;2.83;;;9.50;99.90;;;;;;5008115;28;20312;-68
2022/04/08 07:38:13;;;;;;;5.90;3.13;;;9.40;99.90;;;;;;5010361;28;20196;-68
2022/04/08 07:40:38;;;;;;;5.70;3.40;;;9.50;99.90;;;;;;5010616;28;20217;-68
2022/04/08 07:43:04;;;;;;;5.03;3.47;;;9.50;99.90;;;;;;5010471;28;20438;-68
2022/04/08 07:45:30;;;;;;;7.13;3.00;;;9.50;99.90;;;;;;5010634;28;20189;-68
2022/04/08 07:47:59;;;;;;;6.07;2.90;;;9.40;99.90;;;;;;5010355;28;20474;-68
2022/04/08 07:50:27;;;;;;;5.07;2.77;;;9.40;99.90;;;;;;5010603;28;20185;-68
2022/04/08 07:52:53;;;;;;;5.80;3.50;;;9.50;99.90;;;;;;5010713;28;20490;-68
2022/04/08 07:55:20;;;;;;;6.93;2.60;;;9.50;99.90;;;;;;5010503;28;20668;-69
2022/04/08 07:57:52;;;;;;;5.77;3.10;;;9.50;99.90;;;;;;5010396;28;20205;-68
2022/04/08 08:00:25;;;;;;;6.67;3.53;;;9.50;99.90;;;;;;5010173;28;20467;-68
2022/04/08 08:02:51;;;;;;;7.83;3.67;;;9.60;99.90;;;;;;5010583;28;20763;-68
2022/04/08 08:05:18;;;;;;;5.50;2.97;;;9.70;99.90;;;;;;5010317;28;20923;-68
2022/04/08 08:07:58;;;;;;;5.53;3.20;;;9.60;99.90;;;;;;5010295;28;20913;-68
2022/04/08 08:10:29;;;;;;;4.97;3.00;;;9.80;99.90;;;;;;5010341;28;20534;-68
2022/04/08 08:12:55;;;;;;;5.27;2.90;;;9.90;99.90;;;;;;5010407;28;20420;-68
2022/04/08 08:15:23;;;;;;;6.10;3.30;;;10.00;99.90;;;;;;5006133;28;20432;-69
2022/04/08 08:17:49;;;;;;;4.40;2.70;;;10.00;99.90;;;;;;5000452;28;20444;-68
2022/04/08 08:20:18;;;;;;;4.20;2.70;;;10.10;99.90;;;;;;5009823;28;20513;-68
2022/04/08 08:22:44;;;;;;;3.67;2.53;;;10.10;99.90;;;;;;5010226;28;20412;-69
2022/04/08 08:25:11;;;;;;;4.27;2.53;;;10.10;99.90;;;;;;5012920;28;20476;-68
2022/04/08 08:27:41;;;;;;;4.00;2.50;;;10.20;99.90;;;;;;5013474;28;20416;-68
2022/04/08 08:30:11;;;;;;;3.13;1.83;;;10.20;99.90;;;;;;5013490;28;20436;-68
2022/04/08 08:32:38;;;;;;;3.30;2.30;;;10.40;99.90;;;;;;5013810;28;20949;-68
2022/04/08 08:35:14;;;;;;;6.60;3.10;;;10.40;99.90;;;;;;5013561;28;20420;-69
2022/04/08 08:37:40;;;;;;;4.83;2.50;;;10.30;99.90;;;;;;5013513;28;20516;-68
2022/04/08 08:40:08;;;;;;;4.50;2.37;;;10.50;99.90;;;;;;5012913;28;20487;-68
2022/04/08 08:42:38;;;;;;;4.23;2.63;;;10.50;99.90;;;;;;5013682;28;20432;-68
2022/04/08 08:45:06;;;;;;;4.87;2.43;;;10.60;99.90;;;;;;5013460;28;20430;-69
2022/04/08 08:47:32;;;;;;;6.57;3.17;;;10.60;99.90;;;;;;5013203;28;20451;-68
2022/04/08 08:49:59;;;;;;;4.90;2.30;;;10.60;99.90;;;;;;5013463;28;20440;-69
2022/04/08 08:52:25;;;;;;;8.93;2.40;;;10.70;99.90;;;;;;5012885;28;20522;-69
2022/04/08 08:54:51;;;;;;;3.07;2.23;;;10.90;99.90;;;;;;5013394;28;20451;-69
2022/04/08 08:57:19;;;;;;;4.23;1.90;;;10.80;99.90;;;;;;5012992;28;20223;-69
2022/04/08 08:59:46;;;;;;;4.67;3.10;;;10.80;99.90;;;;;;5013169;28;20481;-69
2022/04/08 09:02:19;;;;;;;6.47;3.40;;;10.80;99.90;;;;;;5012991;28;20420;-69
2022/04/08 09:04:45;;;;;;;5.03;2.93;;;10.90;99.90;;;;;;5013275;28;20928;-69
2022/04/08 09:07:24;;;;;;;3.80;2.00;;;11.10;99.90;;;;;;5013342;28;20420;-69
2022/04/08 09:09:56;;;;;;;3.63;2.10;;;11.10;99.90;;;;;;5013212;28;20451;-69
2022/04/08 09:12:27;;;;;;;4.37;2.20;;;11.10;99.90;;;;;;5012961;28;20505;-69
2022/04/08 09:14:58;;;;;;;6.23;2.13;;;11.10;99.90;;;;;;5013121;28;20453;-69
2022/04/08 09:17:25;;;;;;;4.60;2.17;;;11.10;99.90;;;;;;5012131;28;20452;-69
2022/04/08 09:19:54;;;;;;;4.17;2.33;;;11.20;99.90;;;;;;5012855;28;20562;-69
2022/04/08 09:22:21;;;;;;;4.73;2.30;;;11.30;99.90;;;;;;5012749;28;20438;-69
2022/04/08 09:24:47;;;;;;;5.70;2.50;;;11.40;99.90;;;;;;5012800;28;20420;-69
2022/04/08 09:27:13;;;;;;;5.60;2.20;;;11.40;99.90;;;;;;5012652;28;20416;-69
2022/04/08 09:29:45;;;;;;;3.83;2.10;;;11.50;99.90;;;;;;5012168;28;20448;-69
2022/04/08 09:32:13;;;;;;;3.30;2.40;;;11.50;99.90;;;;;;5012601;28;20515;-69
2022/04/08 09:34:41;;;;;;;3.80;2.30;;;11.60;99.90;;;;;;5012497;28;20821;-69
2022/04/08 09:37:12;;;;;;;2.87;2.00;;;11.70;99.90;;;;;;5011906;28;20519;-69
2022/04/08 09:39:52;;;;;;;5.00;2.67;;;11.70;99.90;;;;;;5012440;28;20879;-69
2022/04/08 09:42:18;;;;;;;4.00;1.83;;;11.80;99.90;;;;;;5012284;28;20427;-69
2022/04/08 09:44:43;;;;;;;4.40;2.10;;;11.90;99.90;;;;;;5012389;28;20481;-69
2022/04/08 09:47:09;;;;;;;4.97;2.40;;;11.90;99.90;;;;;;5012062;28;20184;-69
2022/04/08 09:49:35;;;;;;;5.00;2.43;;;11.90;99.90;;;;;;5012288;28;20200;-69
2022/04/08 09:52:05;;;;;;;3.03;2.00;;;11.70;99.90;;;;;;5012338;28;20185;-69
2022/04/08 09:54:33;;;;;;;4.40;2.33;;;11.70;99.90;;;;;;5012228;28;20563;-69
2022/04/08 09:57:00;;;;;;;5.50;2.50;;;11.80;99.90;;;;;;5011871;28;20446;-69
2022/04/08 09:59:29;;;;;;;4.50;2.37;;;11.80;99.90;;;;;;5012023;28;20506;-69
2022/04/08 10:01:58;;;;;;;5.63;2.83;;;12.00;99.90;;;;;;5011821;28;20416;-69
2022/04/08 10:04:25;;;;;;;5.10;2.90;;;12.00;99.90;;;;;;5012095;28;20424;-69
2022/04/08 10:06:51;;;;;;;4.13;2.23;;;11.90;99.90;;;;;;5011585;28;20439;-69
2022/04/08 10:09:19;;;;;;;3.97;2.40;;;12.00;99.90;;;;;;5011793;28;20615;-69
2022/04/08 10:12:15;;;;;;;4.43;2.40;;;12.10;99.90;;;;;;5011790;28;21020;-69
2022/04/08 10:15:09;;;;;;;4.50;2.70;;;11.60;99.90;;;;;;5012049;28;20446;-69
2022/04/08 10:17:35;;;;;;;4.70;2.93;;;11.60;99.90;;;;;;5011235;28;20431;-69
2022/04/08 10:20:20;;;;;;;4.90;2.43;;;11.60;99.90;;;;;;5011577;28;20484;-69
2022/04/08 10:22:47;;;;;;;6.23;3.50;;;11.70;99.90;;;;;;5011589;28;20694;-69
2022/04/08 10:25:15;;;;;;;6.47;2.93;;;11.70;99.90;;;;;;5011514;28;20430;-69
2022/04/08 10:27:43;;;;;;;5.13;3.10;;;11.80;99.90;;;;;;5011443;28;20786;-69
2022/04/08 10:30:12;;;;;;;3.97;2.80;;;11.90;99.90;;;;;;5010879;28;20447;-69
2022/04/08 10:32:39;;;;;;;9.27;3.70;;;12.00;99.90;;;;;;5011513;28;20430;-69
2022/04/08 10:35:18;;;;;;;4.60;2.60;;;12.00;99.90;;;;;;5011467;28;20946;-69
2022/04/08 10:37:58;;;;;;;4.10;2.73;;;11.90;99.90;;;;;;5011365;28;20423;-69
2022/04/08 10:40:34;;;;;;;4.30;2.80;;;11.80;99.90;;;;;;5011138;28;20479;-69
2022/04/08 10:43:01;;;;;;;5.00;3.20;;;11.90;99.90;;;;;;5011046;28;20976;-69
2022/04/08 10:45:29;;;;;;;5.67;3.30;;;11.80;99.90;;;;;;5011214;28;20767;-69
2022/04/08 10:47:57;;;;;;;5.27;3.50;;;11.80;99.90;;;;;;5010972;28;20803;-69
2022/04/08 10:50:28;;;;;;;7.33;4.03;;;11.80;99.90;;;;;;5011378;28;20428;-69
2022/04/08 10:53:18;;;;;;;5.50;3.80;;;11.60;99.90;;;;;;5005141;28;20491;-69
2022/04/08 10:55:55;;;;;;;4.70;3.20;;;11.80;99.90;;;;;;5000417;28;20436;-69
2022/04/08 10:58:34;;;;;;;4.23;3.20;;;11.70;99.90;;;;;;5010001;28;20839;-69
2022/04/08 11:01:12;;;;;;;6.40;3.20;;;11.60;99.90;;;;;;5010819;28;20547;-69
2022/04/08 11:03:41;;;;;;;5.07;3.50;;;11.40;99.90;;;;;;4991218;28;20428;-69
2022/04/08 11:06:08;;;;;;;6.23;3.83;;;11.50;99.90;;;;;;4991058;28;20421;-69
2022/04/08 11:08:34;;;;;;;4.50;3.10;;;11.70;99.90;;;;;;4991224;28;20432;-69
2022/04/08 11:11:00;;;;;;;7.00;3.87;;;11.60;99.90;;;;;;4991286;28;20952;-69
2022/04/08 11:13:26;;;;;;;4.47;3.50;;;11.70;99.90;;;;;;4991631;28;20464;-69
2022/04/08 11:15:52;;;;;;;7.80;3.07;;;11.80;99.90;;;;;;4990849;28;20465;-69
2022/04/08 11:18:19;;;;;;;5.10;3.13;;;11.90;99.90;;;;;;4990944;28;20511;-69
2022/04/08 11:20:51;;;;;;;5.43;3.70;;;11.90;99.90;;;;;;4991097;28;20625;-69
2022/04/08 11:23:34;;;;;;;4.80;2.83;;;11.90;99.90;;;;;;5008984;28;20962;-69
2022/04/08 11:26:00;;;;;;;9.13;3.83;;;12.00;99.90;;;;;;5011187;28;20529;-69
2022/04/08 11:28:26;;;;;;;4.70;3.10;;;12.20;99.90;;;;;;5010894;28;20444;-69
2022/04/08 11:30:57;;;;;;;5.50;3.33;;;12.50;99.90;;;;;;5010325;28;20428;-69
2022/04/08 11:33:24;;;;;;;5.00;3.50;;;12.90;99.90;;;;;;5008437;28;20447;-69
2022/04/08 11:36:08;;;;;;;4.10;3.57;;;13.10;99.90;;;;;;5003631;28;20510;-69
2022/04/08 11:38:34;;;;;;;5.47;3.80;;;13.10;99.90;;;;;;5010448;28;20810;-69
2022/04/08 11:41:01;;;;;;;5.60;3.70;;;13.10;99.90;;;;;;5033852;23;20490;-68
2022/04/08 11:43:27;;;;;;;6.00;3.60;;;13.10;99.90;;;;;;5052800;28;20664;-68
2022/04/08 11:45:53;;;;;;;4.23;3.50;;;12.90;99.90;;;;;;5053165;28;20570;-68
2022/04/08 11:48:20;;;;;;;5.20;3.67;;;12.80;99.90;;;;;;5048942;28;20606;-68
2022/04/08 11:50:47;;;;;;;4.60;3.30;;;12.60;99.90;;;;;;5053109;28;20535;-69
2022/04/08 11:53:19;;;;;;;5.50;3.87;;;12.80;99.90;;;;;;5043621;28;20942;-69
2022/04/08 11:56:00;;;;;;;4.60;3.30;;;12.80;99.90;;;;;;5052876;28;20470;-68
2022/04/08 11:58:27;;;;;;;5.00;3.37;;;12.90;99.90;;;;;;5050662;28;20527;-67
2022/04/08 12:00:54;;;;;;;7.53;3.90;;;13.00;99.90;;;;;;5056712;28;20998;-68
2022/04/08 12:03:21;;;;;;;5.90;3.73;;;12.60;99.90;;;;;;5057385;28;20915;-68
2022/04/08 12:05:51;;;;;;;4.77;3.47;;;12.50;99.90;;;;;;5057000;28;20425;-68
2022/04/08 12:08:18;;;;;;;6.00;3.27;;;12.40;99.90;;;;;;5056826;28;20437;-68
2022/04/08 12:10:45;;;;;;;5.17;3.73;;;12.30;99.90;;;;;;5056740;28;20946;-68
2022/04/08 12:13:19;;;;;;;7.07;3.90;;;12.30;99.90;;;;;;5056708;28;20817;-69
2022/04/08 12:15:48;;;;;;;7.43;3.80;;;12.20;99.90;;;;;;5056767;28;20946;-69
2022/04/08 12:18:21;;;;;;;4.90;3.53;;;12.30;99.90;;;;;;5056972;28;20421;-68
2022/04/08 12:20:52;;;;;;;6.30;3.90;;;12.30;99.90;;;;;;5056782;28;20457;-69
2022/04/08 12:23:21;;;;;;;5.63;3.00;;;12.40;99.90;;;;;;5057135;28;20416;-68
2022/04/08 12:25:52;;;;;;;5.20;4.00;;;12.50;99.90;;;;;;5056554;28;20995;-68
2022/04/08 12:28:21;;;;;;;6.00;3.60;;;12.70;99.90;;;;;;5056684;28;20433;-69
2022/04/08 12:30:47;;;;;;;4.70;3.53;;;12.60;99.90;;;;;;5056725;28;20471;-68
2022/04/08 12:33:13;;;;;;;6.07;3.20;;;12.60;99.90;;;;;;5056535;28;20441;-69
2022/04/08 12:35:38;;;;;;;5.37;3.47;;;12.50;99.90;;;;;;5056612;28;20435;-69
2022/04/08 12:38:04;;;;;;;5.80;3.60;;;12.40;99.90;;;;;;5055873;28;20183;-68
2022/04/08 12:40:32;;;;;;;5.30;3.17;;;12.30;99.90;;;;;;5056261;28;20681;-68
2022/04/08 12:43:00;;;;;;;5.00;3.43;;;12.30;99.90;;;;;;5055818;28;20437;-68
2022/04/08 12:45:27;;;;;;;9.00;3.70;;;12.00;99.90;;;;;;5053918;28;20430;-69
2022/04/08 12:47:52;;;;;;;4.77;3.43;;;12.00;99.90;;;;;;5053176;28;20535;-69
2022/04/08 12:50:18;;;;;;;5.63;3.27;;;11.80;99.90;;;;;;5052918;28;20524;-69
2022/04/08 12:52:44;;;;;;;6.60;3.83;;;11.90;99.90;;;;;;5056426;28;20178;-68
2022/04/08 12:55:10;;;;;;;6.80;3.40;;;11.80;99.90;;;;;;5056523;28;20183;-69